Time;durP1;ratioP1;P1;durP2;ratioP2;P2;SDS_P1;SDS_P2;PMS_P1;PMS_P2;Temp;Humidity;BMP_temperature;BMP_pressure;BME280_temperature;BME280_humidity;BME280_pressure;Samples;Min_cycle;Max_cycle;Signal;HPM_P1;HPM_P2
2021/08/03 00:00:02;;;;;;;1999.90;999.90;;;;;;;16.53;93.25;98125.59;5052722;28;20090;-67
2021/08/03 00:02:30;;;;;;;1999.90;999.90;;;;;;;16.43;93.80;98118.63;5051808;28;20080;-67
2021/08/03 00:04:59;;;;;;;1999.90;999.90;;;;;;;16.43;93.79;98118.63;5053210;28;20053;-67
2021/08/03 00:07:27;;;;;;;1999.90;999.90;;;;;;;16.46;94.01;98115.09;5052343;28;20049;-67
2021/08/03 00:09:56;;;;;;;1999.90;999.90;;;;;;;16.76;92.39;98122.00;5053201;28;20045;-67
2021/08/03 00:12:24;;;;;;;1999.90;999.90;;;;;;;16.66;93.00;98123.44;5053437;28;20132;-68
2021/08/03 00:14:53;;;;;;;1999.90;999.90;;;;;;;16.96;91.39;98120.78;5052147;28;20040;-68
2021/08/03 00:17:23;;;;;;;1999.90;999.90;;;;;;;16.86;91.45;98119.38;5052398;28;20053;-68
2021/08/03 00:19:50;;;;;;;1999.90;999.90;;;;;;;16.61;92.06;98118.16;5051958;28;20045;-68
2021/08/03 00:22:17;;;;;;;1999.90;999.90;;;;;;;16.64;92.21;98120.19;5051896;28;20430;-68
2021/08/03 00:24:44;;;;;;;1999.90;999.90;;;;;;;16.71;91.43;98125.91;5051961;28;20048;-68
2021/08/03 00:27:11;;;;;;;1999.90;999.90;;;;;;;16.52;93.34;98124.81;5052946;28;20045;-67
2021/08/03 00:29:38;;;;;;;1999.90;999.90;;;;;;;16.90;91.33;98128.66;5052700;28;20454;-68
2021/08/03 00:32:05;;;;;;;1999.90;999.90;;;;;;;16.89;90.91;98121.47;5052100;28;20152;-68
2021/08/03 00:34:34;;;;;;;1999.90;999.90;;;;;;;16.78;91.42;98125.22;5052601;28;20045;-68
2021/08/03 00:37:01;;;;;;;1999.90;999.90;;;;;;;16.97;91.06;98127.16;5052580;28;20350;-68
2021/08/03 00:39:27;;;;;;;1999.90;999.90;;;;;;;16.95;91.07;98133.13;5050265;28;20087;-68
2021/08/03 00:41:58;;;;;;;1999.90;999.90;;;;;;;16.98;91.04;98126.00;5052111;28;20045;-68
2021/08/03 00:44:48;;;;;;;1999.90;999.90;;;;;;;17.12;90.77;98131.81;5052460;28;20377;-68
2021/08/03 00:47:17;;;;;;;1999.90;999.90;;;;;;;17.24;90.32;98131.59;5052488;28;20330;-67
2021/08/03 00:49:44;;;;;;;1999.90;999.90;;;;;;;17.25;89.67;98136.03;5051872;28;20364;-68
2021/08/03 00:52:13;;;;;;;1999.90;999.90;;;;;;;17.15;90.23;98135.84;5052240;28;20094;-68
2021/08/03 00:54:40;;;;;;;1999.90;999.90;;;;;;;17.06;90.33;98138.91;5052642;28;20053;-67
2021/08/03 00:57:08;;;;;;;1999.90;999.90;;;;;;;17.10;90.15;98136.97;5051208;28;20262;-67
2021/08/03 00:59:35;;;;;;;1999.90;999.90;;;;;;;16.89;90.56;98137.41;5051614;28;20467;-68
2021/08/03 01:02:03;;;;;;;1999.90;999.90;;;;;;;16.92;90.99;98144.25;5051884;28;20404;-68
2021/08/03 01:04:31;;;;;;;1999.90;999.90;;;;;;;16.61;91.76;98134.91;5051863;28;20056;-68
2021/08/03 01:07:04;;;;;;;1999.90;999.90;;;;;;;16.58;92.33;98146.81;5051052;28;20101;-67
2021/08/03 01:09:47;;;;;;;1999.90;999.90;;;;;;;16.87;91.23;98142.59;5051751;28;20045;-68
2021/08/03 01:12:16;;;;;;;1999.90;999.90;;;;;;;16.83;91.17;98125.72;5051829;28;20045;-68
2021/08/03 01:14:56;;;;;;;1999.90;999.90;;;;;;;17.04;90.33;98124.50;5050729;28;20049;-68
2021/08/03 01:17:36;;;;;;;1999.90;999.90;;;;;;;17.09;90.19;98121.41;5051156;28;20056;-68
2021/08/03 01:20:24;;;;;;;1999.90;999.90;;;;;;;17.06;90.14;98119.34;5050871;28;20045;-68
2021/08/03 01:23:02;;;;;;;1999.90;999.90;;;;;;;17.18;89.40;98116.34;5051740;28;20393;-67
2021/08/03 01:25:53;;;;;;;1999.90;999.90;;;;;;;17.07;89.59;98112.56;5051140;28;20110;-68
2021/08/03 01:28:28;;;;;;;1999.90;999.90;;;;;;;16.99;89.85;98122.03;5050546;28;20080;-68
2021/08/03 01:31:02;;;;;;;1999.90;999.90;;;;;;;16.85;89.46;98116.97;5051000;28;20377;-68
2021/08/03 01:33:32;;;;;;;1999.90;999.90;;;;;;;16.60;90.66;98128.53;5050452;28;20084;-68
2021/08/03 01:36:00;;;;;;;1999.90;999.90;;;;;;;16.63;91.00;98126.97;5051077;28;20087;-68
2021/08/03 01:38:29;;;;;;;1999.90;999.90;;;;;;;16.52;90.97;98135.16;5050247;28;20091;-68
2021/08/03 01:41:01;;;;;;;1999.90;999.90;;;;;;;16.69;90.61;98122.69;5050905;28;20075;-68
2021/08/03 01:43:29;;;;;;;1999.90;999.90;;;;;;;16.56;91.35;98124.84;5051277;28;20110;-68
2021/08/03 01:45:57;;;;;;;1999.90;999.90;;;;;;;16.45;92.01;98127.47;5050681;28;20167;-68
2021/08/03 01:48:24;;;;;;;1999.90;999.90;;;;;;;16.64;90.82;98126.63;5050600;28;20114;-68
2021/08/03 01:50:53;;;;;;;1999.90;999.90;;;;;;;16.65;91.06;98128.22;5050594;28;20067;-68
2021/08/03 01:53:23;;;;;;;1999.90;999.90;;;;;;;16.81;90.40;98130.88;5050440;28;20699;-68
2021/08/03 01:55:53;;;;;;;1999.90;999.90;;;;;;;16.79;90.41;98126.84;5050586;28;20098;-68
2021/08/03 01:58:21;;;;;;;1999.90;999.90;;;;;;;16.79;90.25;98133.25;5050987;28;20045;-68
2021/08/03 02:00:50;;;;;;;1999.90;999.90;;;;;;;16.55;91.23;98126.84;5049765;28;20041;-68
2021/08/03 02:03:21;;;;;;;1999.90;999.90;;;;;;;16.62;90.77;98130.94;5049695;28;20055;-68
2021/08/03 02:05:50;;;;;;;1999.90;999.90;;;;;;;16.66;90.51;98134.63;5050664;28;20479;-68
2021/08/03 02:08:21;;;;;;;1999.90;999.90;;;;;;;16.54;90.75;98143.97;5051533;28;20053;-68
2021/08/03 02:10:49;;;;;;;1999.90;999.90;;;;;;;16.40;90.96;98144.50;5049606;28;20396;-68
2021/08/03 02:13:16;;;;;;;1999.90;999.90;;;;;;;16.30;90.77;98147.88;5049688;28;20099;-68
2021/08/03 02:15:43;;;;;;;1999.90;999.90;;;;;;;15.96;92.70;98156.00;5050978;28;20045;-68
2021/08/03 02:18:10;;;;;;;1999.90;999.90;;;;;;;16.02;91.83;98157.31;5049899;28;20086;-68
2021/08/03 02:20:38;;;;;;;1999.90;999.90;;;;;;;16.23;90.72;98153.34;5049040;28;20075;-68
2021/08/03 02:23:05;;;;;;;1999.90;999.90;;;;;;;15.74;92.30;98161.06;5050519;28;20064;-68
2021/08/03 02:25:32;;;;;;;1999.90;999.90;;;;;;;15.87;91.08;98160.94;5050981;28;20049;-68
2021/08/03 02:27:58;;;;;;;1999.90;999.90;;;;;;;15.74;90.56;98152.69;5049876;28;20041;-68
2021/08/03 02:30:25;;;;;;;1999.90;999.90;;;;;;;15.67;91.40;98158.13;5049983;28;20368;-68
2021/08/03 02:33:29;;;;;;;1999.90;999.90;;;;;;;15.58;91.43;98146.38;5050563;28;20080;-68
2021/08/03 02:36:11;;;;;;;1999.90;999.90;;;;;;;15.43;91.40;98151.59;5050844;28;20416;-68
2021/08/03 02:38:43;;;;;;;1999.90;999.90;;;;;;;15.52;91.14;98145.03;5049612;28;20434;-68
2021/08/03 02:41:11;;;;;;;1999.90;999.90;;;;;;;15.56;90.51;98151.50;5049510;28;20041;-68
2021/08/03 02:43:38;;;;;;;1999.90;999.90;;;;;;;15.65;89.94;98152.91;5051777;28;20422;-68
2021/08/03 02:46:05;;;;;;;1999.90;999.90;;;;;;;15.31;91.35;98160.88;5054770;28;20138;-68
2021/08/03 02:48:34;;;;;;;1999.90;999.90;;;;;;;15.11;93.10;98162.81;5052498;28;20045;-68
2021/08/03 02:51:02;;;;;;;1999.90;999.90;;;;;;;15.24;93.44;98162.69;5054505;28;20090;-68
2021/08/03 02:53:35;;;;;;;1999.90;999.90;;;;;;;15.48;92.55;98170.84;5055031;28;20049;-67
2021/08/03 02:56:15;;;;;;;1999.90;999.90;;;;;;;15.53;92.78;98166.16;5053466;28;20071;-68
2021/08/03 02:58:48;;;;;;;1999.90;999.90;;;;;;;15.43;93.62;98173.91;5053568;28;20488;-68
2021/08/03 03:01:19;;;;;;;1999.90;999.90;;;;;;;15.75;92.34;98168.25;5053918;28;20372;-68
2021/08/03 03:03:51;;;;;;;1999.90;999.90;;;;;;;15.75;92.44;98167.44;5054156;28;20095;-68
2021/08/03 03:06:20;;;;;;;1999.90;999.90;;;;;;;15.81;92.14;98166.81;5053558;28;20080;-69
2021/08/03 03:08:47;;;;;;;1999.90;999.90;;;;;;;15.99;91.93;98171.97;5053956;28;20484;-68
2021/08/03 03:11:15;;;;;;;1999.90;999.90;;;;;;;16.12;91.38;98170.66;5054626;28;20115;-68
2021/08/03 03:13:52;;;;;;;1999.90;999.90;;;;;;;16.15;91.31;98175.50;5053058;28;20083;-68
2021/08/03 03:16:22;;;;;;;1999.90;999.90;;;;;;;16.29;90.56;98174.19;5053205;28;20059;-68
2021/08/03 03:18:50;;;;;;;1999.90;999.90;;;;;;;16.24;91.00;98177.25;5054196;28;20921;-68
2021/08/03 03:21:19;;;;;;;1999.90;999.90;;;;;;;16.23;91.02;98176.47;5053148;28;20408;-69
2021/08/03 03:23:49;;;;;;;1999.90;999.90;;;;;;;16.27;90.74;98170.94;5053176;28;20091;-68
2021/08/03 03:26:16;;;;;;;1999.90;999.90;;;;;;;16.16;91.12;98165.94;5052983;28;20077;-68
2021/08/03 03:28:45;;;;;;;1999.90;999.90;;;;;;;16.30;90.16;98178.56;5053691;28;20122;-69
2021/08/03 03:31:12;;;;;;;1999.90;999.90;;;;;;;16.01;91.22;98178.78;5052804;28;20045;-68
2021/08/03 03:33:41;;;;;;;1999.90;999.90;;;;;;;16.08;91.18;98178.16;5052862;28;20417;-68
2021/08/03 03:36:09;;;;;;;1999.90;999.90;;;;;;;15.93;92.15;98187.38;5042083;28;20400;-68
2021/08/03 03:38:38;;;;;;;1999.90;999.90;;;;;;;15.53;94.88;98188.44;5053624;28;20057;-68
2021/08/03 03:41:06;;;;;;;1999.90;999.90;;;;;;;15.91;93.15;98196.09;5052490;28;20073;-68
2021/08/03 03:43:32;;;;;;;1999.90;999.90;;;;;;;15.87;93.09;98194.41;5053172;28;20052;-68
2021/08/03 03:46:13;;;;;;;1999.90;999.90;;;;;;;15.37;96.04;98197.63;5053838;28;20389;-68
2021/08/03 03:48:50;;;;;;;1999.90;999.90;;;;;;;15.29;97.35;98198.66;5052745;28;20057;-68
2021/08/03 03:51:19;;;;;;;1999.90;999.90;;;;;;;15.67;95.51;98195.19;5052488;28;20422;-68
2021/08/03 03:53:50;;;;;;;1999.90;999.90;;;;;;;15.86;94.55;98190.81;5053100;28;20079;-68
2021/08/03 03:56:18;;;;;;;1999.90;999.90;;;;;;;15.62;94.28;98191.84;5053284;28;20056;-68
2021/08/03 03:58:51;;;;;;;1999.90;999.90;;;;;;;15.93;93.60;98190.16;5052554;28;20049;-68
2021/08/03 04:01:20;;;;;;;1999.90;999.90;;;;;;;16.16;92.19;98193.84;5052588;28;20048;-68
2021/08/03 04:03:50;;;;;;;1999.90;999.90;;;;;;;16.12;91.90;98198.56;5053718;28;20213;-69
2021/08/03 04:06:17;;;;;;;1999.90;999.90;;;;;;;16.19;91.84;98198.69;5051635;28;20438;-68
2021/08/03 04:08:44;;;;;;;1999.90;999.90;;;;;;;15.94;93.39;98197.34;5052191;28;20082;-68
2021/08/03 04:11:13;;;;;;;1999.90;999.90;;;;;;;15.98;92.82;98201.84;5053321;28;20045;-68
2021/08/03 04:13:42;;;;;;;1999.90;999.90;;;;;;;16.02;93.40;98194.34;5052039;28;20045;-68
2021/08/03 04:16:09;;;;;;;1999.90;999.90;;;;;;;16.23;93.65;98197.97;5052208;28;20049;-68
2021/08/03 04:18:36;;;;;;;1999.90;999.90;;;;;;;16.66;92.25;98190.44;5052623;28;20123;-69
2021/08/03 04:21:03;;;;;;;1999.90;999.90;;;;;;;17.03;91.70;98198.28;5052450;28;20342;-69
2021/08/03 04:23:29;;;;;;;1999.90;999.90;;;;;;;17.54;91.05;98197.13;5052180;28;20053;-69
2021/08/03 04:25:56;;;;;;;1999.90;999.90;;;;;;;17.87;89.84;98199.22;5053192;28;20044;-69
2021/08/03 04:28:22;;;;;;;1999.90;999.90;;;;;;;18.33;87.51;98201.03;5053659;28;20065;-69
2021/08/03 04:30:49;;;;;;;1999.90;999.90;;;;;;;18.56;86.82;98198.09;5053286;28;20563;-69
2021/08/03 04:33:16;;;;;;;1999.90;999.90;;;;;;;18.82;85.86;98202.78;5052738;28;20048;-69
2021/08/03 04:35:43;;;;;;;1999.90;999.90;;;;;;;19.30;84.96;98199.25;5054179;28;20045;-69
2021/08/03 04:38:09;;;;;;;1999.90;999.90;;;;;;;19.76;81.64;98202.78;5053951;28;20102;-69
2021/08/03 04:40:36;;;;;;;1999.90;999.90;;;;;;;19.91;80.64;98198.09;5052941;28;20040;-69
2021/08/03 04:43:03;;;;;;;1999.90;999.90;;;;;;;20.05;79.86;98189.72;5053326;28;20048;-69
2021/08/03 04:45:29;;;;;;;1999.90;999.90;;;;;;;20.36;78.85;98193.88;5054270;28;20443;-69
2021/08/03 04:47:56;;;;;;;1999.90;999.90;;;;;;;20.24;78.39;98199.84;5052927;28;20106;-69
2021/08/03 04:50:26;;;;;;;1999.90;999.90;;;;;;;19.67;80.03;98200.31;5051751;28;20095;-69
2021/08/03 04:52:54;;;;;;;1999.90;999.90;;;;;;;19.36;81.30;98206.09;5052898;28;20430;-69
2021/08/03 04:55:21;;;;;;;1999.90;999.90;;;;;;;19.23;81.76;98204.78;5053078;28;20438;-69
2021/08/03 04:57:47;;;;;;;1999.90;999.90;;;;;;;19.05;82.13;98207.41;5051819;28;20103;-69
2021/08/03 05:00:16;;;;;;;1999.90;999.90;;;;;;;18.96;83.05;98202.13;5053473;28;20426;-69
2021/08/03 05:02:43;;;;;;;1999.90;999.90;;;;;;;18.75;84.27;98202.69;5053055;28;20106;-69
2021/08/03 05:05:12;;;;;;;1999.90;999.90;;;;;;;18.70;84.78;98196.63;5052419;28;20099;-69
2021/08/03 05:07:38;;;;;;;1999.90;999.90;;;;;;;18.89;84.46;98201.25;5052538;28;20075;-69
2021/08/03 05:10:09;;;;;;;1999.90;999.90;;;;;;;19.05;84.46;98203.81;5053469;28;20048;-69
2021/08/03 05:12:37;;;;;;;1999.90;999.90;;;;;;;19.13;83.43;98199.88;5052275;28;20132;-70
2021/08/03 05:15:08;;;;;;;1999.90;999.90;;;;;;;19.21;83.25;98207.16;5049337;28;20080;-70
2021/08/03 05:17:35;;;;;;;1999.90;999.90;;;;;;;19.25;83.54;98208.03;5053356;28;20102;-68
2021/08/03 05:20:02;;;;;;;1999.90;999.90;;;;;;;19.36;83.16;98211.69;5052354;28;20107;-68
2021/08/03 05:22:30;;;;;;;1999.90;999.90;;;;;;;19.29;83.91;98211.66;5052042;28;20095;-69
2021/08/03 05:24:58;;;;;;;1999.90;999.90;;;;;;;19.21;84.45;98211.97;5051531;28;20064;-70
2021/08/03 05:27:26;;;;;;;1999.90;999.90;;;;;;;19.36;84.29;98214.50;5052844;28;20091;-69
2021/08/03 05:29:53;;;;;;;1999.90;999.90;;;;;;;19.30;84.36;98216.06;5052478;28;20124;-70
2021/08/03 05:32:19;;;;;;;1999.90;999.90;;;;;;;19.34;84.23;98216.91;5050703;28;20045;-70
2021/08/03 05:34:46;;;;;;;1999.90;999.90;;;;;;;19.20;85.19;98211.16;5053377;28;20083;-70
2021/08/03 05:37:13;;;;;;;1999.90;999.90;;;;;;;19.12;84.88;98209.50;5051561;28;20072;-69
2021/08/03 05:39:39;;;;;;;1999.90;999.90;;;;;;;18.99;86.15;98212.56;5052022;28;20044;-70
2021/08/03 05:42:06;;;;;;;1999.90;999.90;;;;;;;19.25;84.94;98212.78;5052647;28;20037;-70
2021/08/03 05:44:32;;;;;;;1999.90;999.90;;;;;;;19.00;86.16;98219.78;5052641;28;20110;-70
2021/08/03 05:46:59;;;;;;;1999.90;999.90;;;;;;;19.07;85.47;98213.47;5051600;28;20422;-69
2021/08/03 05:49:26;;;;;;;1999.90;999.90;;;;;;;19.31;84.68;98217.69;5052168;28;20094;-70
2021/08/03 05:51:55;;;;;;;1999.90;999.90;;;;;;;19.41;84.35;98215.34;5052834;28;20389;-70
2021/08/03 05:54:23;;;;;;;1999.90;999.90;;;;;;;19.15;86.15;98211.53;5051451;28;20056;-70
2021/08/03 05:56:49;;;;;;;1999.90;999.90;;;;;;;19.56;85.19;98217.09;5051551;28;20095;-70
2021/08/03 05:59:16;;;;;;;1999.90;999.90;;;;;;;19.60;85.19;98228.31;5052844;28;20102;-69
2021/08/03 06:01:42;;;;;;;1999.90;999.90;;;;;;;19.60;85.48;98229.09;5051298;28;20111;-70
2021/08/03 06:04:09;;;;;;;1999.90;999.90;;;;;;;19.30;86.56;98229.28;5051047;28;20053;-69
2021/08/03 06:06:39;;;;;;;1999.90;999.90;;;;;;;19.35;85.99;98232.53;5052126;28;20060;-69
2021/08/03 06:09:10;;;;;;;1999.90;999.90;;;;;;;19.25;84.86;98233.25;5052001;28;20095;-68
2021/08/03 06:11:45;;;;;;;1999.90;999.90;;;;;;;19.55;84.99;98240.69;5051003;28;20389;-69
2021/08/03 06:14:12;;;;;;;1999.90;999.90;;;;;;;19.44;85.06;98234.19;5052159;28;20079;-69
2021/08/03 06:16:39;;;;;;;1999.90;999.90;;;;;;;19.77;84.57;98232.44;5052329;28;20727;-68
2021/08/03 06:19:10;;;;;;;1999.90;999.90;;;;;;;20.02;84.47;98227.00;5050106;28;20052;-68
2021/08/03 06:21:37;;;;;;;1999.90;999.90;;;;;;;19.97;83.59;98230.19;5050506;28;20119;-67
2021/08/03 06:24:05;;;;;;;1999.90;999.90;;;;;;;20.06;82.51;98231.44;5051925;28;20430;-68
2021/08/03 06:26:32;;;;;;;1999.90;999.90;;;;;;;20.29;81.97;98230.38;5051742;28;20053;-68
2021/08/03 06:28:59;;;;;;;1999.90;999.90;;;;;;;20.31;81.64;98227.16;5051281;28;20098;-67
2021/08/03 06:31:27;;;;;;;1999.90;999.90;;;;;;;20.26;83.16;98228.34;5051693;28;20045;-67
2021/08/03 06:33:53;;;;;;;1999.90;999.90;;;;;;;20.57;83.08;98228.88;5051670;28;20106;-67
2021/08/03 06:36:20;;;;;;;1999.90;999.90;;;;;;;20.45;81.87;98234.84;5051097;28;20069;-67
2021/08/03 06:38:46;;;;;;;1999.90;999.90;;;;;;;20.45;80.73;98237.66;5051387;28;20171;-68
2021/08/03 06:41:24;;;;;;;1999.90;999.90;;;;;;;20.23;81.09;98231.91;5052338;28;20123;-67
2021/08/03 06:43:58;;;;;;;1999.90;999.90;;;;;;;20.35;81.71;98231.59;5051243;28;20048;-67
2021/08/03 06:46:27;;;;;;;1999.90;999.90;;;;;;;20.69;80.71;98231.38;5051009;28;20045;-68
2021/08/03 06:49:02;;;;;;;1999.90;999.90;;;;;;;20.90;81.56;98225.00;5051694;28;20438;-67
2021/08/03 06:51:38;;;;;;;1999.90;999.90;;;;;;;21.24;81.05;98226.63;5051864;28;20408;-67
2021/08/03 06:54:06;;;;;;;1999.90;999.90;;;;;;;21.57;78.23;98233.91;5050584;28;20079;-67
2021/08/03 06:56:37;;;;;;;1999.90;999.90;;;;;;;21.81;76.46;98226.66;5050868;28;20081;-67
2021/08/03 06:59:05;;;;;;;1999.90;999.90;;;;;;;21.49;75.88;98231.47;5051760;28;20049;-67
2021/08/03 07:01:54;;;;;;;1999.90;999.90;;;;;;;22.06;75.47;98228.63;5051265;28;20323;-68
2021/08/03 07:04:29;;;;;;;1999.90;999.90;;;;;;;22.04;74.06;98242.28;5050940;28;20048;-67
2021/08/03 07:06:58;;;;;;;1999.90;999.90;;;;;;;22.27;73.80;98238.19;5051356;28;20049;-67
2021/08/03 07:09:27;;;;;;;1999.90;999.90;;;;;;;22.41;72.32;98240.22;5050669;28;20045;-67
2021/08/03 07:11:54;;;;;;;1999.90;999.90;;;;;;;21.73;72.40;98241.91;5051305;28;20392;-67
2021/08/03 07:14:24;;;;;;;1999.90;999.90;;;;;;;21.85;73.79;98239.91;5050564;28;20106;-67
2021/08/03 07:16:55;;;;;;;1999.90;999.90;;;;;;;21.61;73.77;98245.16;5051529;28;20049;-67
2021/08/03 07:19:23;;;;;;;1999.90;999.90;;;;;;;22.12;73.89;98237.44;5051382;28;20048;-67
2021/08/03 07:21:51;;;;;;;1999.90;999.90;;;;;;;22.31;73.47;98234.19;5049764;28;20377;-67
2021/08/03 07:24:19;;;;;;;1999.90;999.90;;;;;;;22.40;72.36;98228.13;5051134;28;20389;-67
2021/08/03 07:26:45;;;;;;;1999.90;999.90;;;;;;;22.75;69.87;98239.66;5052184;28;20049;-67
2021/08/03 07:29:12;;;;;;;1999.90;999.90;;;;;;;23.21;69.47;98235.78;5050524;28;20041;-67
2021/08/03 07:31:41;;;;;;;1999.90;999.90;;;;;;;23.48;67.91;98233.16;5054689;28;20118;-67
2021/08/03 07:34:09;;;;;;;1999.90;999.90;;;;;;;23.93;64.87;98228.75;5037754;28;20076;-67
2021/08/03 07:36:37;;;;;;;1999.90;999.90;;;;;;;23.89;66.51;98229.59;5055411;28;20377;-67
2021/08/03 07:39:06;;;;;;;1999.90;999.90;;;;;;;24.32;64.80;98233.16;5054333;28;20041;-67
2021/08/03 07:41:34;;;;;;;1999.90;999.90;;;;;;;24.64;62.03;98231.97;5054597;28;20045;-67
2021/08/03 07:44:02;;;;;;;1999.90;999.90;;;;;;;24.18;60.43;98239.78;5055198;28;20079;-67
2021/08/03 07:46:30;;;;;;;1999.90;999.90;;;;;;;24.24;62.69;98238.88;5053789;28;20053;-67
2021/08/03 07:48:58;;;;;;;1999.90;999.90;;;;;;;24.64;61.63;98237.63;5054418;28;20124;-67
2021/08/03 07:51:25;;;;;;;1999.90;999.90;;;;;;;24.83;57.55;98239.00;5054863;28;20082;-67
2021/08/03 07:53:52;;;;;;;1999.90;999.90;;;;;;;24.98;61.51;98243.25;5054228;28;20049;-67
2021/08/03 07:56:20;;;;;;;1999.90;999.90;;;;;;;25.37;60.40;98235.41;5053922;28;20050;-67
2021/08/03 07:58:47;;;;;;;1999.90;999.90;;;;;;;25.31;58.47;98241.56;5054227;28;20124;-67
2021/08/03 08:01:17;;;;;;;1999.90;999.90;;;;;;;25.86;57.42;98240.66;5054422;28;20131;-67
2021/08/03 08:03:46;;;;;;;1999.90;999.90;;;;;;;26.17;56.29;98249.81;5053512;28;20052;-67
2021/08/03 08:06:14;;;;;;;1999.90;999.90;;;;;;;26.22;57.06;98242.88;5054452;28;20114;-67
2021/08/03 08:08:42;;;;;;;1999.90;999.90;;;;;;;26.17;57.39;98239.31;5054966;28;20077;-67
2021/08/03 08:11:08;;;;;;;1999.90;999.90;;;;;;;26.30;57.61;98245.13;5053322;28;20423;-67
2021/08/03 08:13:35;;;;;;;1999.90;999.90;;;;;;;26.39;55.64;98233.22;5053462;28;20044;-67
2021/08/03 08:16:02;;;;;;;1999.90;999.90;;;;;;;25.54;55.46;98242.03;5054216;28;20049;-67
2021/08/03 08:18:28;;;;;;;1999.90;999.90;;;;;;;25.86;52.76;98241.47;5053983;28;20453;-67
2021/08/03 08:20:55;;;;;;;1999.90;999.90;;;;;;;25.41;55.18;98234.16;5052462;28;20427;-67
2021/08/03 08:23:22;;;;;;;1999.90;999.90;;;;;;;25.56;56.91;98231.88;5054060;28;20107;-67
2021/08/03 08:25:49;;;;;;;1999.90;999.90;;;;;;;25.72;55.03;98231.19;5054472;28;20048;-67
2021/08/03 08:28:15;;;;;;;1999.90;999.90;;;;;;;26.29;57.22;98232.19;5053131;28;20320;-67
2021/08/03 08:30:42;;;;;;;1999.90;999.90;;;;;;;26.07;51.78;98233.81;5053541;28;20114;-67
2021/08/03 08:33:09;;;;;;;1999.90;999.90;;;;;;;25.52;54.62;98233.97;5054100;28;20144;-67
2021/08/03 08:35:38;;;;;;;1999.90;999.90;;;;;;;25.12;55.04;98236.59;5052950;28;20053;-67
2021/08/03 08:38:06;;;;;;;1999.90;999.90;;;;;;;26.23;53.34;98233.13;5053362;28;20049;-67
2021/08/03 08:40:38;;;;;;;1999.90;999.90;;;;;;;26.22;53.91;98238.00;5053661;28;20071;-67
2021/08/03 08:43:04;;;;;;;1999.90;999.90;;;;;;;26.95;49.40;98231.69;5051973;28;20094;-67
2021/08/03 08:45:31;;;;;;;1999.90;999.90;;;;;;;26.58;50.53;98234.44;5052554;28;20082;-67
2021/08/03 08:47:58;;;;;;;1999.90;999.90;;;;;;;26.42;52.42;98231.53;5053788;28;20080;-66
2021/08/03 08:50:25;;;;;;;1999.90;999.90;;;;;;;25.96;53.66;98228.34;5053866;28;20099;-67
2021/08/03 08:52:54;;;;;;;1999.90;999.90;;;;;;;26.74;49.55;98236.56;5053119;28;20043;-67
2021/08/03 08:55:22;;;;;;;1999.90;999.90;;;;;;;26.38;49.79;98234.47;5053002;28;20048;-67
2021/08/03 08:57:53;;;;;;;1999.90;999.90;;;;;;;27.09;50.95;98230.53;5053587;28;20057;-67
2021/08/03 09:00:22;;;;;;;1999.90;999.90;;;;;;;27.15;49.75;98234.44;5052344;28;20048;-67
2021/08/03 09:02:53;;;;;;;1999.90;999.90;;;;;;;27.07;49.60;98233.81;5052275;28;20049;-67
2021/08/03 09:05:32;;;;;;;1999.90;999.90;;;;;;;27.23;50.71;98233.84;5053344;28;23492;-67
2021/08/03 09:08:01;;;;;;;1999.90;999.90;;;;;;;27.26;49.58;98243.53;5052743;28;20095;-65
2021/08/03 09:10:29;;;;;;;1999.90;999.90;;;;;;;27.32;48.15;98240.94;5051995;28;20044;-66
2021/08/03 09:13:11;;;;;;;1999.90;999.90;;;;;;;27.48;47.94;98240.19;5053153;28;20041;-66
2021/08/03 09:15:42;;;;;;;1999.90;999.90;;;;;;;25.93;49.28;98238.50;5051563;28;20049;-66
2021/08/03 09:18:09;;;;;;;1999.90;999.90;;;;;;;25.92;51.32;98233.25;5053668;28;20053;-66
2021/08/03 09:20:36;;;;;;;1999.90;999.90;;;;;;;26.29;49.38;98234.22;5051588;28;20045;-65
2021/08/03 09:23:03;;;;;;;1999.90;999.90;;;;;;;26.01;50.00;98233.56;5052439;28;20037;-66
2021/08/03 09:25:30;;;;;;;1999.90;999.90;;;;;;;26.47;51.68;98236.69;5052319;28;20111;-66
2021/08/03 09:28:08;;;;;;;1999.90;999.90;;;;;;;27.14;51.19;98230.00;5052010;28;20056;-66
2021/08/03 09:30:37;;;;;;;1999.90;999.90;;;;;;;27.54;48.97;98230.69;5052436;28;20131;-66
2021/08/03 09:33:06;;;;;;;1999.90;999.90;;;;;;;26.84;49.56;98223.38;5052315;28;20307;-67
2021/08/03 09:35:34;;;;;;;1999.90;999.90;;;;;;;27.03;50.26;98225.38;5052978;28;20426;-66
2021/08/03 09:38:00;;;;;;;1999.90;999.90;;;;;;;27.30;50.89;98227.19;5052178;28;20041;-66
2021/08/03 09:40:33;;;;;;;1999.90;999.90;;;;;;;26.87;50.74;98211.16;5052842;28;20377;-66
2021/08/03 09:43:04;;;;;;;1999.90;999.90;;;;;;;26.88;49.98;98224.09;5051869;28;20086;-66
2021/08/03 09:45:34;;;;;;;1999.90;999.90;;;;;;;27.41;48.82;98221.28;5051729;28;20122;-66
2021/08/03 09:48:14;;;;;;;1999.90;999.90;;;;;;;26.59;50.02;98218.22;5052156;28;20359;-66
2021/08/03 09:51:01;;;;;;;1999.90;999.90;;;;;;;26.70;50.92;98211.13;5050413;28;20057;-66
2021/08/03 09:53:44;;;;;;;1999.90;999.90;;;;;;;27.00;51.53;98216.97;5051309;28;20044;-66
2021/08/03 09:56:35;;;;;;;1999.90;999.90;;;;;;;27.36;48.55;98216.94;5051295;28;20041;-66
2021/08/03 09:59:06;;;;;;;1999.90;999.90;;;;;;;27.36;46.54;98218.97;5048608;28;20048;-67
2021/08/03 10:01:42;;;;;;;1999.90;999.90;;;;;;;26.82;48.27;98208.84;5051855;28;20049;-65
2021/08/03 10:04:11;;;;;;;1999.90;999.90;;;;;;;27.00;48.21;98214.91;5051995;28;20102;-65
2021/08/03 10:06:40;;;;;;;1999.90;999.90;;;;;;;27.33;46.86;98209.31;5050101;28;20059;-65
2021/08/03 10:09:08;;;;;;;1999.90;999.90;;;;;;;27.40;47.62;98217.63;5051388;28;20329;-65
2021/08/03 10:11:36;;;;;;;1999.90;999.90;;;;;;;27.33;46.65;98215.00;5052022;28;20433;-65
2021/08/03 10:14:24;;;;;;;1999.90;999.90;;;;;;;27.00;48.12;98217.75;5051992;28;20546;-65
2021/08/03 10:16:53;;;;;;;1999.90;999.90;;;;;;;27.77;49.35;98218.34;5051239;28;20045;-65
2021/08/03 10:19:26;;;;;;;1999.90;999.90;;;;;;;28.39;45.79;98208.97;5051885;28;20044;-65
2021/08/03 10:22:01;;;;;;;1999.90;999.90;;;;;;;28.69;43.42;98221.16;5050664;28;20067;-65
2021/08/03 10:24:39;;;;;;;1999.90;999.90;;;;;;;28.89;42.32;98211.59;5050822;28;20251;-65
2021/08/03 10:27:10;;;;;;;1999.90;999.90;;;;;;;29.47;42.76;98208.53;5050673;28;20072;-65
2021/08/03 10:29:57;;;;;;;1999.90;999.90;;;;;;;28.74;42.92;98217.72;5051795;28;20053;-65
2021/08/03 10:32:49;;;;;;;1999.90;999.90;;;;;;;28.60;42.19;98210.44;5050771;28;20067;-66
2021/08/03 10:35:18;;;;;;;1999.90;999.90;;;;;;;29.55;41.31;98208.31;5051585;28;20049;-65
2021/08/03 10:37:57;;;;;;;1999.90;999.90;;;;;;;28.87;42.95;98209.22;5051034;28;20049;-65
2021/08/03 10:40:46;;;;;;;1999.90;999.90;;;;;;;28.50;43.60;98211.50;5051445;28;20045;-65
2021/08/03 10:43:18;;;;;;;1999.90;999.90;;;;;;;27.74;43.10;98202.19;5051782;28;20061;-65
2021/08/03 10:45:46;;;;;;;1999.90;999.90;;;;;;;27.23;46.21;98191.28;5051378;28;20053;-65
2021/08/03 10:48:37;;;;;;;1999.90;999.90;;;;;;;27.37;45.77;98190.16;5050700;28;20073;-66
2021/08/03 10:51:12;;;;;;;1999.90;999.90;;;;;;;27.60;44.21;98199.75;5051300;28;20114;-66
2021/08/03 10:53:58;;;;;;;1999.90;999.90;;;;;;;28.46;44.28;98197.41;5042704;28;20052;-66
2021/08/03 10:56:25;;;;;;;1999.90;999.90;;;;;;;28.74;39.91;98197.81;5051190;28;20393;-66
2021/08/03 10:59:32;;;;;;;1999.90;999.90;;;;;;;29.81;39.86;98189.13;5050765;28;20104;-65
2021/08/03 11:02:00;;;;;;;1999.90;999.90;;;;;;;30.18;36.57;98187.41;5050535;28;20056;-66
2021/08/03 11:04:46;;;;;;;1999.90;999.90;;;;;;;30.36;34.31;98195.28;5052240;28;20131;-66
2021/08/03 11:07:34;;;;;;;1999.90;999.90;;;;;;;30.65;38.08;98182.84;5055472;28;20048;-66